• Join FlightAware (Why Join?)
  • Login
  • US Flag 
08:14AM EST


 

Airport Tracker/Info


-or-


 

Live Flight TrackerFlight Track Log ✈ KAP927 ✈ 04-Jul-2013 ✈ KOGS - KALB

Flight Track Log - Related Links

Times and Time Zones

All times are in EDT time to prevent confusion due to time zone crossing. See the KAP927 flight status page for this flight to view local times or setup timezone preferences in your user account.

Time Position Orientation Groundspeed Altitude Reporting Facility
EDT Latitude Longitude Course Direction KTS MPH feet Rate Location/Type
07:13AM 44.6729 -75.4565 144° Southeast  Level FlightAware Approximate
07:17AM 44.5856 -75.3317 144° Southeast 149 171 3,200  Level Boston Center
07:18AM 44.5572 -75.3011 142° Southeast 138 159 3,800 600 Climbing Boston Center
07:19AM 44.5264 -75.2733 147° Southeast 133 153 4,500 600 Climbing Boston Center
07:20AM 44.4958 -75.2458 147° Southeast 133 153 5,000 540 Climbing Boston Center
07:21AM 44.4653 -75.2211 150° Southeast 128 147 5,600 540 Climbing Boston Center
07:22AM 44.4306 -75.1903 148° Southeast 134 154 6,100 540 Climbing Boston Center
07:23AM 44.3997 -75.1686 153° Southeast 139 160 6,700 420 Climbing Boston Center
07:24AM 44.3631 -75.1350 147° Southeast 139 160 7,000 120 Climbing Boston Center
07:25AM 44.3242 -75.1069 153° Southeast 149 171 7,000  Level Boston Center
07:26AM 44.2792 -75.0672 148° Southeast 161 185 7,000  Level Boston Center
07:27AM 44.2425 -75.0367 149° Southeast 161 185 7,000  Level Boston Center
07:28AM 44.2036 -75.0031 148° Southeast 161 185 7,000  Level Boston Center
07:29AM 44.1669 -74.9697 147° Southeast 161 185 7,000  Level Boston Center
07:30AM 44.1281 -74.9361 148° Southeast 161 185 7,000  Level Boston Center
07:31AM 44.0889 -74.9058 151° Southeast 161 185 7,000  Level Boston Center
07:32AM 44.0419 -74.8633 147° Southeast 161 185 7,000  Level Boston Center
07:33AM 44.0031 -74.8328 151° Southeast 161 185 7,000  Level Boston Center
07:34AM 43.9642 -74.7997 149° Southeast 161 185 7,000  Level Boston Center
07:36AM 43.9150 -74.7603 150° Southeast 161 185 7,000  Level Boston Center
07:37AM 43.8761 -74.7269 148° Southeast 166 191 7,000  Level Boston Center
07:38AM 43.8369 -74.6939 149° Southeast 166 191 7,000  Level Boston Center
07:39AM 43.8003 -74.6608 147° Southeast 166 191 7,000  Level Boston Center
07:40AM 43.7611 -74.6306 151° Southeast 166 191 7,000  Level Boston Center
07:41AM 43.7222 -74.5975 148° Southeast 166 191 7,000 -60 Level Boston Center
07:42AM 43.6831 -74.5647 149° Southeast 166 191 6,900 -60 Descending Boston Center
07:43AM 43.6422 -74.5317 150° Southeast 166 191 6,900  Level Boston Center
07:44AM 43.6053 -74.5017 150° Southeast 166 191 6,900  Level Boston Center
07:45AM 43.5642 -74.4686 150° Southeast 166 191 6,900  Level Boston Center
07:46AM 43.5250 -74.4358 149° Southeast 166 191 6,900  Level Boston Center
07:47AM 43.4881 -74.4033 147° Southeast 166 191 6,900  Level Boston Center
07:48AM 43.4511 -74.3733 149° Southeast 166 191 6,900  Level Boston Center
07:49AM 43.4017 -74.3347 150° Southeast 161 185 7,000  Climbing Boston Center
07:50AM 43.3731 -74.3081 146° Southeast 166 191 6,900 -60 Descending Boston Center
07:51AM 43.3358 -74.2783 150° Southeast 166 191 6,900  Level Boston Center
07:52AM 43.2969 -74.2458 149° Southeast 166 191 6,900 -60 Level Boston Center
07:53AM 43.2578 -74.2161 151° Southeast 166 191 6,800 -300 Descending Boston Center
07:54AM 43.2167 -74.1836 150° Southeast 166 191 6,300 -540 Descending Boston Center
07:55AM 43.1714 -74.1453 148° Southeast 180 207 5,800 -540 Descending Boston Center
07:56AM 43.1300 -74.1128 150° Southeast 180 207 5,300 -420 Descending Boston Center
07:57AM 43.0889 -74.0778 148° Southeast 180 207 5,000 -180 Descending Boston Center
07:58AM 43.0436 -74.0425 150° Southeast 175 201 5,000 -120 Level Boston Center
07:59AM 43.0003 -74.0044 147° Southeast 159 183 4,800 -420 Descending Boston Center
08:00AM 42.9569 -73.9664 147° Southeast 176 203 4,200 -600 Descending Boston Center
08:01AM 42.9158 -73.9228 142° Southeast 172 198 3,600 -600 Descending Boston Center
08:02AM 42.8789 -73.8794 139° Southeast 173 199 3,000 -660 Descending Boston Center
08:03AM 42.8397 -73.8417 145° Southeast 171 197 2,300 -720 Descending Boston Center
08:04AM 42.8028 -73.8125 150° Southeast 141 162 1,600 -840 Descending Boston Center
08:05AM 42.7736 -73.8092 175° South 99 114 700 -900 Descending Boston Center
08:07AM 42.7491 -73.8020 160° South  Level Estimated
08:14AM 42.7491 -73.8020 160° South  Level Estimated
08:15AM 42.7491 -73.8020 160° South  Level Estimated
08:16AM 42.7491 -73.8020 160° South  Level Estimated